Time;durP1;ratioP1;P1;durP2;ratioP2;P2;SDS_P1;SDS_P2;PMS_P1;PMS_P2;Temp;Humidity;BMP_temperature;BMP_pressure;BME280_temperature;BME280_humidity;BME280_pressure;Samples;Min_cycle;Max_cycle;Signal;HPM_P1;HPM_P2
2022/03/02 00:01:32;;;;;;;;;;;5.50;99.90;;;;;;5032186;28;20397;-83
2022/03/02 00:03:57;;;;;;;;;;;5.60;99.90;;;;;;5015485;28;20500;-84
2022/03/02 00:06:23;;;;;;;;;;;5.50;99.90;;;;;;4999907;28;19925;-83
2022/03/02 00:08:48;;;;;;;;;;;5.50;99.90;;;;;;5015608;28;19925;-83
2022/03/02 00:11:16;;;;;;;;;;;5.40;99.90;;;;;;5032035;28;19926;-83
2022/03/02 00:13:42;;;;;;;;;;;5.50;99.90;;;;;;5031939;28;19931;-83
2022/03/02 00:16:08;;;;;;;;;;;5.50;99.90;;;;;;5031215;28;20312;-83
2022/03/02 00:18:34;;;;;;;;;;;5.50;99.90;;;;;;5032087;28;19925;-83
2022/03/02 00:21:00;;;;;;;;;;;5.50;99.90;;;;;;5015034;28;20143;-84
2022/03/02 00:23:25;;;;;;;;;;;5.50;99.90;;;;;;5031725;28;20054;-83
2022/03/02 00:25:51;;;;;;;;;;;5.40;99.90;;;;;;5016055;28;19925;-84
2022/03/02 00:28:16;;;;;;;;;;;5.50;99.90;;;;;;5015393;28;19926;-83
2022/03/02 00:30:42;;;;;;;;;;;5.50;99.90;;;;;;4999118;28;20042;-83
2022/03/02 00:33:08;;;;;;;;;;;5.40;99.90;;;;;;5015413;28;20361;-83
2022/03/02 00:35:34;;;;;;;;;;;5.50;99.90;;;;;;5014956;28;19932;-83
2022/03/02 00:38:02;;;;;;;;;;;5.50;99.90;;;;;;5031832;28;19925;-83
2022/03/02 00:40:28;;;;;;;;;;;5.50;99.90;;;;;;5031861;28;20381;-84
2022/03/02 00:42:53;;;;;;;;;;;5.40;99.90;;;;;;5021218;28;19932;-84
2022/03/02 00:45:19;;;;;;;;;;;5.30;99.90;;;;;;5006787;28;19928;-83
2022/03/02 00:47:45;;;;;;;;;;;5.30;99.90;;;;;;5032255;28;20012;-83
2022/03/02 00:50:11;;;;;;;;;;;5.30;99.90;;;;;;5015282;28;20296;-83
2022/03/02 00:52:37;;;;;;;;;;;5.30;99.90;;;;;;5031106;28;20031;-84
2022/03/02 00:55:03;;;;;;;;;;;5.20;99.90;;;;;;5032291;28;20055;-84
2022/03/02 00:57:29;;;;;;;;;;;5.30;99.90;;;;;;5036810;28;19965;-83
2022/03/02 00:59:54;;;;;;;;;;;5.30;99.90;;;;;;4998676;28;19964;-83
2022/03/02 01:02:20;;;;;;;;;;;5.20;99.90;;;;;;5017098;28;20286;-83
2022/03/02 01:04:45;;;;;;;;;;;5.20;99.90;;;;;;4998883;28;19979;-83
2022/03/02 01:07:11;;;;;;;;;;;5.20;99.90;;;;;;5015066;28;19972;-83
2022/03/02 01:09:37;;;;;;;;;;;5.20;99.90;;;;;;5020793;28;20438;-82
2022/03/02 01:12:02;;;;;;;;;;;5.20;99.90;;;;;;5021005;28;19932;-83
2022/03/02 01:14:28;;;;;;;;;;;5.20;99.90;;;;;;5031239;28;19925;-83
2022/03/02 01:16:53;;;;;;;;;;;5.20;99.90;;;;;;5031998;28;20378;-82
2022/03/02 01:19:19;;;;;;;;;;;5.10;99.90;;;;;;5031730;28;20008;-83
2022/03/02 01:21:45;;;;;;;;;;;5.10;99.90;;;;;;5015007;28;19925;-83
2022/03/02 01:24:11;;;;;;;;;;;5.10;99.90;;;;;;5031722;28;19933;-83
2022/03/02 01:26:36;;;;;;;;;;;5.10;99.90;;;;;;5031785;28;19925;-82
2022/03/02 01:29:03;;;;;;;;;;;5.10;99.90;;;;;;5017703;28;19925;-83
2022/03/02 01:31:28;;;;;;;;;;;5.10;99.90;;;;;;5035658;28;19925;-82
2022/03/02 01:33:54;;;;;;;;;;;5.00;99.90;;;;;;5035521;28;19933;-83
2022/03/02 01:36:21;;;;;;;;;;;5.10;99.90;;;;;;5035417;28;20019;-83
2022/03/02 01:38:46;;;;;;;;;;;5.00;99.90;;;;;;5018955;28;19969;-84
2022/03/02 01:41:20;;;;;;;;;;;5.00;99.90;;;;;;5018751;28;19972;-82
2022/03/02 01:43:47;;;;;;;;;;;5.00;99.90;;;;;;5018063;28;19925;-84
2022/03/02 01:46:13;;;;;;;;;;;4.90;99.90;;;;;;5034798;28;20263;-83
2022/03/02 01:48:39;;;;;;;;;;;4.90;99.90;;;;;;5018424;28;19929;-83
2022/03/02 01:51:05;;;;;;;;;;;5.00;99.90;;;;;;5034407;28;19972;-85
2022/03/02 01:53:31;;;;;;;;;;;4.90;99.90;;;;;;5018495;28;20368;-83
2022/03/02 01:55:57;;;;;;;;;;;4.80;99.90;;;;;;5017450;28;19925;-83
2022/03/02 01:58:23;;;;;;;;;;;4.90;99.90;;;;;;5018114;28;19925;-83
2022/03/02 02:00:49;;;;;;;;;;;4.90;99.90;;;;;;5018232;28;19932;-83
2022/03/02 02:03:15;;;;;;;;;;;4.80;99.90;;;;;;5034536;28;19933;-83
2022/03/02 02:05:40;;;;;;;;;;;4.80;99.90;;;;;;5034800;28;19936;-83
2022/03/02 02:08:07;;;;;;;;;;;4.80;99.90;;;;;;5018306;28;20361;-84
2022/03/02 02:10:32;;;;;;;;;;;4.80;99.90;;;;;;5018710;28;19925;-82
2022/03/02 02:12:58;;;;;;;;;;;4.70;99.90;;;;;;5034399;28;20285;-82
2022/03/02 02:15:23;;;;;;;;;;;4.70;99.90;;;;;;5017834;28;20384;-83
2022/03/02 02:17:49;;;;;;;;;;;4.60;99.90;;;;;;5017877;28;19961;-83
2022/03/02 02:20:15;;;;;;;;;;;4.60;99.90;;;;;;5034038;28;20332;-83
2022/03/02 02:22:41;;;;;;;;;;;4.50;99.90;;;;;;5017961;28;19929;-83
2022/03/02 02:25:07;;;;;;;;;;;4.50;99.90;;;;;;5034145;28;19925;-83
2022/03/02 02:27:33;;;;;;;;;;;4.50;99.90;;;;;;5017633;28;19932;-82
2022/03/02 02:29:59;;;;;;;;;;;4.40;99.90;;;;;;5017233;28;20499;-82
2022/03/02 02:32:25;;;;;;;;;;;4.30;99.90;;;;;;5017619;28;20285;-82
2022/03/02 02:34:51;;;;;;;;;;;4.30;99.90;;;;;;5017553;28;19929;-83
2022/03/02 02:37:16;;;;;;;;;;;4.30;99.90;;;;;;5034287;28;20286;-83
2022/03/02 02:39:42;;;;;;;;;;;4.20;99.90;;;;;;5017415;28;19932;-83
2022/03/02 02:42:08;;;;;;;;;;;4.10;99.90;;;;;;5016980;28;19926;-83
2022/03/02 02:44:34;;;;;;;;;;;4.20;99.90;;;;;;5034253;28;19932;-83
2022/03/02 02:47:00;;;;;;;;;;;4.10;99.90;;;;;;5033564;28;19940;-83
2022/03/02 02:49:26;;;;;;;;;;;4.20;99.90;;;;;;5000765;28;19925;-82
2022/03/02 02:51:53;;;;;;;;;;;4.10;99.90;;;;;;5017743;28;19987;-82
2022/03/02 02:54:20;;;;;;;;;;;4.10;99.90;;;;;;5033819;28;19972;-82
2022/03/02 02:56:45;;;;;;;;;;;4.10;99.90;;;;;;5016871;28;19968;-84
2022/03/02 02:59:11;;;;;;;;;;;4.00;99.90;;;;;;5017363;28;19964;-84
2022/03/02 03:01:37;;;;;;;;;;;4.00;99.90;;;;;;5033598;28;19935;-83
2022/03/02 03:04:03;;;;;;;;;;;3.90;99.90;;;;;;5017452;28;19925;-83
2022/03/02 03:06:29;;;;;;;;;;;4.00;99.90;;;;;;5016506;28;20020;-83
2022/03/02 03:08:55;;;;;;;;;;;3.90;99.90;;;;;;5016792;28;19979;-82
2022/03/02 03:11:21;;;;;;;;;;;4.00;99.90;;;;;;5033427;28;19929;-83
2022/03/02 03:13:46;;;;;;;;;;;3.90;99.90;;;;;;5016656;28;19974;-83
2022/03/02 03:16:12;;;;;;;;;;;3.90;99.90;;;;;;5016580;28;19972;-82
2022/03/02 03:18:37;;;;;;;;;;;3.90;99.90;;;;;;5016656;28;19975;-83
2022/03/02 03:21:03;;;;;;;;;;;3.90;99.90;;;;;;5032593;28;20377;-83
2022/03/02 03:23:29;;;;;;;;;;;3.80;99.90;;;;;;5016044;28;19925;-83
2022/03/02 03:25:54;;;;;;;;;;;3.80;99.90;;;;;;5016719;28;19925;-83
2022/03/02 03:28:20;;;;;;;;;;;3.80;99.90;;;;;;4999675;28;19936;-83
2022/03/02 03:30:46;;;;;;;;;;;3.80;99.90;;;;;;5016847;28;19932;-83
2022/03/02 03:33:11;;;;;;;;;;;3.80;99.90;;;;;;5033543;28;20044;-82
2022/03/02 03:35:37;;;;;;;;;;;3.80;99.90;;;;;;5015478;28;19935;-82
2022/03/02 03:38:02;;;;;;;;;;;3.70;99.90;;;;;;5000405;28;19940;-82
2022/03/02 03:40:28;;;;;;;;;;;3.70;99.90;;;;;;5016095;28;20008;-83
2022/03/02 03:42:54;;;;;;;;;;;3.70;99.90;;;;;;5040778;28;20394;-82
2022/03/02 03:45:20;;;;;;;;;;;3.70;99.90;;;;;;5023406;28;19991;-83
2022/03/02 03:47:46;;;;;;;;;;;3.70;99.90;;;;;;5033094;28;19929;-83
2022/03/02 03:50:12;;;;;;;;;;;3.70;99.90;;;;;;5032542;28;20341;-83
2022/03/02 03:52:38;;;;;;;;;;;3.60;99.90;;;;;;5031142;28;19955;-83
2022/03/02 03:55:04;;;;;;;;;;;3.60;99.90;;;;;;5032531;28;19931;-84
2022/03/02 03:57:29;;;;;;;;;;;3.60;99.90;;;;;;5032090;28;19925;-83
2022/03/02 03:59:55;;;;;;;;;;;3.50;99.90;;;;;;5016401;28;20016;-83
2022/03/02 04:02:20;;;;;;;;;;;3.50;99.90;;;;;;5032294;28;19932;-83
2022/03/02 04:04:46;;;;;;;;;;;3.50;99.90;;;;;;5016180;28;19925;-83
2022/03/02 04:07:11;;;;;;;;;;;3.50;99.90;;;;;;5032447;28;19978;-83
2022/03/02 04:09:37;;;;;;;;;;;3.50;99.90;;;;;;5015667;28;20708;-83
2022/03/02 04:12:03;;;;;;;;;;;3.40;99.90;;;;;;5015688;28;19964;-82
2022/03/02 04:14:29;;;;;;;;;;;3.40;99.90;;;;;;5015837;28;20020;-83
2022/03/02 04:16:54;;;;;;;;;;;3.40;99.90;;;;;;5016375;28;20408;-83
2022/03/02 04:19:20;;;;;;;;;;;3.40;99.90;;;;;;5015734;28;20070;-83
2022/03/02 04:21:46;;;;;;;;;;;3.40;99.90;;;;;;5032549;28;19932;-83
2022/03/02 04:24:11;;;;;;;;;;;3.30;99.90;;;;;;5016074;28;19948;-82
2022/03/02 04:26:37;;;;;;;;;;;3.30;99.90;;;;;;5031510;28;20059;-83
2022/03/02 04:29:02;;;;;;;;;;;3.30;99.90;;;;;;5016092;28;19930;-83
2022/03/02 04:31:28;;;;;;;;;;;3.30;99.90;;;;;;5015389;28;19933;-83
2022/03/02 04:33:53;;;;;;;;;;;3.20;99.90;;;;;;4998834;28;19932;-83
2022/03/02 04:36:19;;;;;;;;;;;3.30;99.90;;;;;;4999034;28;19925;-83
2022/03/02 04:38:45;;;;;;;;;;;3.20;99.90;;;;;;5032062;28;19925;-83
2022/03/02 04:41:11;;;;;;;;;;;3.20;99.90;;;;;;5050295;28;19929;-83
2022/03/02 04:43:36;;;;;;;;;;;3.20;99.90;;;;;;5031741;28;19925;-83
2022/03/02 04:46:02;;;;;;;;;;;3.20;99.90;;;;;;5031939;28;20336;-83
2022/03/02 04:48:28;;;;;;;;;;;3.20;99.90;;;;;;5015276;28;20435;-83
2022/03/02 04:50:53;;;;;;;;;;;3.10;99.90;;;;;;5031973;28;19929;-82
2022/03/02 04:53:23;;;;;;;;;;;3.10;99.90;;;;;;4999186;28;19972;-83
2022/03/02 04:55:49;;;;;;;;;;;3.10;99.90;;;;;;4999349;28;19971;-83
2022/03/02 04:58:15;;;;;;;;;;;3.10;99.90;;;;;;5031912;28;19925;-82
2022/03/02 05:00:40;;;;;;;;;;;3.10;99.90;;;;;;5031609;28;19936;-82
2022/03/02 05:03:06;;;;;;;;;;;3.10;99.90;;;;;;5016764;28;20032;-83
2022/03/02 05:05:34;;;;;;;;;;;3.10;99.90;;;;;;5023533;28;19964;-83
2022/03/02 05:08:00;;;;;;;;;;;3.10;99.90;;;;;;5032979;28;19949;-82
2022/03/02 05:10:26;;;;;;;;;;;3.00;99.90;;;;;;5017027;28;19925;-83
2022/03/02 05:12:52;;;;;;;;;;;3.10;99.90;;;;;;5002821;28;19925;-83
2022/03/02 05:15:19;;;;;;;;;;;3.00;99.90;;;;;;5034962;28;20305;-82
2022/03/02 05:17:45;;;;;;;;;;;3.00;99.90;;;;;;5034139;28;20516;-82
2022/03/02 05:20:12;;;;;;;;;;;2.90;99.90;;;;;;5035789;28;19925;-83
2022/03/02 05:22:37;;;;;;;;;;;3.00;99.90;;;;;;5019054;28;19976;-83
2022/03/02 05:25:04;;;;;;;;;;;3.00;99.90;;;;;;5051828;28;20350;-83
2022/03/02 05:27:30;;;;;;;;;;;2.90;99.90;;;;;;5033344;28;19976;-84
2022/03/02 05:29:56;;;;;;;;;;;2.90;99.90;;;;;;5035549;28;19971;-83
2022/03/02 05:32:21;;;;;;;;;;;2.90;99.90;;;;;;5035119;28;19925;-82
2022/03/02 05:34:47;;;;;;;;;;;2.90;99.90;;;;;;5018437;28;19936;-83
2022/03/02 05:37:12;;;;;;;;;;;2.90;99.90;;;;;;5035634;28;19925;-83
2022/03/02 05:39:38;;;;;;;;;;;2.90;99.90;;;;;;5017773;28;19932;-84
2022/03/02 05:42:04;;;;;;;;;;;2.80;99.90;;;;;;5017233;28;20290;-83
2022/03/02 05:44:29;;;;;;;;;;;2.80;99.90;;;;;;5035430;28;19964;-84
2022/03/02 05:46:55;;;;;;;;;;;2.80;99.90;;;;;;5018495;28;19933;-85
2022/03/02 05:49:21;;;;;;;;;;;2.70;99.90;;;;;;5034640;28;19952;-84
2022/03/02 05:51:46;;;;;;;;;;;2.70;99.90;;;;;;5034415;28;19925;-83
2022/03/02 05:54:12;;;;;;;;;;;2.70;99.90;;;;;;5018774;28;20016;-83
2022/03/02 05:56:39;;;;;;;;;;;2.70;99.90;;;;;;5033664;28;19971;-83
2022/03/02 05:59:04;;;;;;;;;;;2.70;99.90;;;;;;5034854;28;19925;-83
2022/03/02 06:01:31;;;;;;;;;;;2.70;99.90;;;;;;5016722;28;20024;-83
2022/03/02 06:03:57;;;;;;;;;;;2.70;99.90;;;;;;5016984;28;19932;-84
2022/03/02 06:06:22;;;;;;;;;;;2.60;99.90;;;;;;5017756;28;19940;-83
2022/03/02 06:08:48;;;;;;;;;;;2.60;99.90;;;;;;5017986;28;20289;-84
2022/03/02 06:11:13;;;;;;;;;;;2.60;99.90;;;;;;5010150;28;19932;-86
2022/03/02 06:13:39;;;;;;;;;;;2.60;99.90;;;;;;5032853;28;20332;-85
2022/03/02 06:16:05;;;;;;;;;;;2.60;99.90;;;;;;5015758;28;19974;-84
2022/03/02 06:18:31;;;;;;;;;;;2.60;99.90;;;;;;5017947;28;19974;-86
2022/03/02 06:21:03;;;;;;;;;;;2.60;99.90;;;;;;5034013;28;20408;-85
2022/03/02 06:23:29;;;;;;;;;;;2.60;99.90;;;;;;5018040;28;20432;-84
2022/03/02 06:25:55;;;;;;;;;;;2.60;99.90;;;;;;4999848;28;19979;-81
2022/03/02 06:28:21;;;;;;;;;;;2.60;99.90;;;;;;5033685;28;19979;-85
2022/03/02 06:30:47;;;;;;;;;;;2.50;99.90;;;;;;5034111;28;19932;-84
2022/03/02 06:33:15;;;;;;;;;;;2.50;99.90;;;;;;5033281;28;19925;-83
2022/03/02 06:35:40;;;;;;;;;;;2.60;99.90;;;;;;5033733;28;19929;-79
2022/03/02 06:38:06;;;;;;;;;;;2.50;99.90;;;;;;5018004;28;19947;-83
2022/03/02 06:40:32;;;;;;;;;;;2.60;99.90;;;;;;5029130;28;19940;-81
2022/03/02 06:43:06;;;;;;;;;;;2.50;99.90;;;;;;5032759;28;19932;-82
2022/03/02 06:45:47;;;;;;;;;;;2.50;99.90;;;;;;5033888;28;19929;-84
2022/03/02 06:48:16;;;;;;;;;;;2.50;99.90;;;;;;5014284;28;19925;-84
2022/03/02 06:50:44;;;;;;;;;;;2.50;99.90;;;;;;5025640;28;19948;-84
2022/03/02 06:53:11;;;;;;;;;;;2.50;99.90;;;;;;5034663;28;19933;-84
2022/03/02 06:55:37;;;;;;;;;;;2.50;99.90;;;;;;5033187;28;20011;-84
2022/03/02 06:58:07;;;;;;;;;;;2.50;99.90;;;;;;5033787;28;20016;-84
2022/03/02 07:00:32;;;;;;;;;;;2.50;99.90;;;;;;5033609;28;20320;-84
2022/03/02 07:03:03;;;;;;;;;;;2.60;99.90;;;;;;5000325;28;19929;-84
2022/03/02 07:05:29;;;;;;;;;;;2.60;99.90;;;;;;5033719;28;19933;-85
2022/03/02 07:07:54;;;;;;;;;;;2.60;99.90;;;;;;5033249;28;19925;-85
2022/03/02 07:10:20;;;;;;;;;;;2.60;99.90;;;;;;5016758;28;19935;-84
2022/03/02 07:12:46;;;;;;;;;;;2.70;99.90;;;;;;5016259;28;19932;-86
2022/03/02 07:15:12;;;;;;;;;;;2.70;99.90;;;;;;5016762;28;19975;-85
2022/03/02 07:17:39;;;;;;;;;;;2.70;99.90;;;;;;5032699;28;19933;-87
2022/03/02 07:20:09;;;;;;;;;;;2.80;99.90;;;;;;5001002;28;19925;-84
2022/03/02 07:22:48;;;;;;;;;;;2.70;99.90;;;;;;5033809;28;19925;-82
2022/03/02 07:25:21;;;;;;;;;;;2.80;99.90;;;;;;5015572;28;19925;-83
2022/03/02 07:27:47;;;;;;;;;;;2.90;99.90;;;;;;5028593;28;19979;-83
2022/03/02 07:30:12;;;;;;;;;;;2.90;99.90;;;;;;5030918;28;19925;-84
2022/03/02 07:32:41;;;;;;;;;;;2.90;99.90;;;;;;5013436;28;20063;-84
2022/03/02 07:35:07;;;;;;;;;;;2.90;99.90;;;;;;5032411;28;19925;-83
2022/03/02 07:37:33;;;;;;;;;;;3.00;99.90;;;;;;5017019;28;19940;-83
2022/03/02 07:39:59;;;;;;;;;;;3.10;99.90;;;;;;5032403;28;20039;-86
2022/03/02 07:42:25;;;;;;;;;;;3.10;99.90;;;;;;5032286;28;20039;-85
2022/03/02 07:44:51;;;;;;;;;;;3.10;99.90;;;;;;5015661;28;20372;-84
2022/03/02 07:47:17;;;;;;;;;;;3.10;99.90;;;;;;5032652;28;19932;-84
2022/03/02 07:49:43;;;;;;;;;;;3.20;99.90;;;;;;5016063;28;19925;-83
2022/03/02 07:52:09;;;;;;;;;;;3.30;99.90;;;;;;5016142;28;19933;-83
2022/03/02 07:54:37;;;;;;;;;;;3.30;99.90;;;;;;5032506;28;20266;-84
2022/03/02 07:57:03;;;;;;;;;;;3.40;99.90;;;;;;5016254;28;19925;-84
2022/03/02 07:59:36;;;;;;;;;;;3.40;99.90;;;;;;5033136;28;19936;-81
2022/03/02 08:02:05;;;;;;;;;;;3.50;99.90;;;;;;5032732;28;19929;-83
2022/03/02 08:04:31;;;;;;;;;;;3.60;99.90;;;;;;5016144;28;19940;-87
2022/03/02 08:06:57;;;;;;;;;;;3.60;99.90;;;;;;4999878;28;19925;-86
2022/03/02 08:09:23;;;;;;;;;;;3.60;99.90;;;;;;5031909;28;19928;-83
2022/03/02 08:11:48;;;;;;;;;;;3.70;99.90;;;;;;5032630;28;20324;-84
2022/03/02 08:14:14;;;;;;;;;;;3.80;99.90;;;;;;5032248;28;19932;-83
2022/03/02 08:16:41;;;;;;;;;;;3.80;99.90;;;;;;5031403;28;20392;-84
2022/03/02 08:19:07;;;;;;;;;;;3.90;99.90;;;;;;5031745;28;19939;-83
2022/03/02 08:21:35;;;;;;;;;;;3.90;99.90;;;;;;5032194;28;19925;-84
2022/03/02 08:24:05;;;;;;;;;;;4.10;99.90;;;;;;5030535;28;20028;-86
2022/03/02 08:26:35;;;;;;;;;;;4.20;99.90;;;;;;5031464;28;19932;-84
2022/03/02 08:29:02;;;;;;;;;;;4.30;99.90;;;;;;5015489;28;20412;-85
2022/03/02 08:31:28;;;;;;;;;;;4.20;99.90;;;;;;5030918;28;20366;-85
2022/03/02 08:33:53;;;;;;;;;;;4.40;99.90;;;;;;5030109;28;19925;-85
2022/03/02 08:36:22;;;;;;;;;;;4.40;99.90;;;;;;5015333;28;20365;-89
2022/03/02 08:38:49;;;;;;;;;;;4.50;99.90;;;;;;5013936;28;19979;-87
2022/03/02 08:41:15;;;;;;;;;;;4.50;99.90;;;;;;5032036;28;19970;-85
2022/03/02 08:43:41;;;;;;;;;;;4.60;99.90;;;;;;5029062;28;19932;-86
2022/03/02 08:46:07;;;;;;;;;;;4.60;99.90;;;;;;5013948;28;19925;-84
2022/03/02 08:48:32;;;;;;;;;;;4.70;99.90;;;;;;5032052;28;19932;-84
2022/03/02 08:50:59;;;;;;;;;;;4.70;99.90;;;;;;5028359;28;20026;-85
2022/03/02 08:53:25;;;;;;;;;;;4.80;99.90;;;;;;5028632;28;19932;-84
2022/03/02 08:55:51;;;;;;;;;;;4.90;99.90;;;;;;5028223;28;19929;-87
2022/03/02 08:58:17;;;;;;;;;;;4.90;99.90;;;;;;5012224;28;20016;-86
2022/03/02 09:00:43;;;;;;;;;;;5.00;99.90;;;;;;5031038;28;20015;-86
2022/03/02 09:03:12;;;;;;;;;;;5.10;99.90;;;;;;5031394;28;19926;-86
2022/03/02 09:05:38;;;;;;;;;;;5.10;99.90;;;;;;5031629;28;19933;-84
2022/03/02 09:08:04;;;;;;;;;;;5.20;99.90;;;;;;5014075;28;19941;-84
2022/03/02 09:10:29;;;;;;;;;;;5.20;99.90;;;;;;5031456;28;19957;-84
2022/03/02 09:12:56;;;;;;;;;;;5.30;99.90;;;;;;5023219;28;19929;-85
2022/03/02 09:15:22;;;;;;;;;;;5.40;99.90;;;;;;5013017;28;19975;-84
2022/03/02 09:17:49;;;;;;;;;;;5.50;99.90;;;;;;5014680;28;19929;-83
2022/03/02 09:20:14;;;;;;;;;;;5.50;99.90;;;;;;5021947;28;20015;-84
2022/03/02 09:22:41;;;;;;;;;;;5.60;99.90;;;;;;5017656;28;20023;-84
2022/03/02 09:25:07;;;;;;;;;;;5.60;99.90;;;;;;4995767;28;20037;-83
2022/03/02 09:27:33;;;;;;;;;;;5.70;99.90;;;;;;5012330;28;19926;-84
2022/03/02 09:30:00;;;;;;;;;;;5.70;99.90;;;;;;5011707;28;19925;-84
2022/03/02 09:32:26;;;;;;;;;;;5.80;99.90;;;;;;5008298;28;19965;-83
2022/03/02 09:34:53;;;;;;;;;;;5.90;99.90;;;;;;5029583;28;19973;-84
2022/03/02 09:37:20;;;;;;;;;;;6.00;99.90;;;;;;5030289;28;19932;-83
2022/03/02 09:39:46;;;;;;;;;;;6.00;99.90;;;;;;5031333;28;19925;-84
2022/03/02 09:42:14;;;;;;;;;;;6.10;99.90;;;;;;5033354;28;20321;-82
2022/03/02 09:44:39;;;;;;;;;;;6.20;99.90;;;;;;5014752;28;19925;-84
2022/03/02 09:47:07;;;;;;;;;;;6.20;99.90;;;;;;5031089;28;19925;-83
2022/03/02 09:49:34;;;;;;;;;;;6.30;99.90;;;;;;5032144;28;19925;-83
2022/03/02 09:52:04;;;;;;;;;;;6.40;99.90;;;;;;5034415;28;19925;-84
2022/03/02 09:54:33;;;;;;;;;;;6.50;99.90;;;;;;5035344;28;19929;-83
2022/03/02 09:57:01;;;;;;;;;;;6.50;99.90;;;;;;5018337;28;19925;-84
2022/03/02 09:59:32;;;;;;;;;;;6.50;99.90;;;;;;5034848;28;19933;-83
2022/03/02 10:02:00;;;;;;;;;;;6.60;99.90;;;;;;5034736;28;20071;-84
2022/03/02 10:04:28;;;;;;;;;;;6.70;99.90;;;;;;5034862;28;19925;-83
2022/03/02 10:09:45;;;;;;;;;;;6.80;99.90;;;;;;5032823;28;19925;-84
2022/03/02 10:12:13;;;;;;;;;;;6.90;99.90;;;;;;5018320;28;20036;-83
2022/03/02 10:14:39;;;;;;;;;;;6.90;99.90;;;;;;5034288;28;20297;-84
2022/03/02 10:17:04;;;;;;;;;;;7.00;99.90;;;;;;5034679;28;20028;-83
2022/03/02 10:19:33;;;;;;;;;;;7.20;99.90;;;;;;5034931;28;19929;-83
2022/03/02 10:22:19;;;;;;;;;;;7.20;99.90;;;;;;5017707;28;19926;-84
2022/03/02 10:24:45;;;;;;;;;;;7.20;99.90;;;;;;5006229;28;19932;-84
2022/03/02 10:27:16;;;;;;;;;;;7.30;99.90;;;;;;5015770;28;19929;-85
2022/03/02 10:29:48;;;;;;;;;;;7.30;99.90;;;;;;5034093;28;19929;-84
2022/03/02 10:32:15;;;;;;;;;;;7.40;99.90;;;;;;5032760;28;19968;-84
2022/03/02 10:34:47;;;;;;;;;;;7.50;99.90;;;;;;5028214;28;19932;-84
2022/03/02 10:37:13;;;;;;;;;;;7.60;99.90;;;;;;5031333;28;19925;-87
2022/03/02 10:39:49;;;;;;;;;;;7.60;99.90;;;;;;5034189;28;19925;-86
2022/03/02 10:42:21;;;;;;;;;;;7.60;99.90;;;;;;5016557;28;20420;-82
2022/03/02 10:44:46;;;;;;;;;;;7.80;99.90;;;;;;5016546;28;20362;-82
2022/03/02 10:47:14;;;;;;;;;;;7.80;99.90;;;;;;5024952;28;19968;-77
2022/03/02 10:49:40;;;;;;;;;;;7.90;99.90;;;;;;5033274;28;20405;-81
2022/03/02 10:52:06;;;;;;;;;;;8.00;99.90;;;;;;5022938;28;19925;-84
2022/03/02 10:54:32;;;;;;;;;;;8.00;99.90;;;;;;5029190;28;19926;-83
2022/03/02 10:57:02;;;;;;;;;;;8.10;99.90;;;;;;5010681;28;19982;-83
2022/03/02 10:59:30;;;;;;;;;;;8.20;99.90;;;;;;5023322;28;19925;-82
2022/03/02 11:01:56;;;;;;;;;;;8.30;99.90;;;;;;5030155;28;19929;-84
2022/03/02 11:04:22;;;;;;;;;;;8.50;99.90;;;;;;5033893;28;19933;-80
2022/03/02 11:06:48;;;;;;;;;;;8.50;99.90;;;;;;5033096;28;19972;-78
2022/03/02 11:09:16;;;;;;;;;;;8.60;99.90;;;;;;5001050;28;19983;-82
2022/03/02 11:11:42;;;;;;;;;;;8.60;99.90;;;;;;5033790;28;19926;-82
2022/03/02 11:14:08;;;;;;;;;;;8.70;99.90;;;;;;5016477;28;19929;-83
2022/03/02 11:16:34;;;;;;;;;;;8.70;99.90;;;;;;5017508;28;19951;-83
2022/03/02 11:19:10;;;;;;;;;;;8.90;99.90;;;;;;5033673;28;19929;-83
2022/03/02 11:21:37;;;;;;;;;;;8.90;99.90;;;;;;5033796;28;19932;-84
2022/03/02 11:24:04;;;;;;;;;;;9.00;99.90;;;;;;5033557;28;20293;-84
2022/03/02 11:26:35;;;;;;;;;;;9.10;99.90;;;;;;5016840;28;20394;-83
2022/03/02 11:29:02;;;;;;;;;;;9.10;99.90;;;;;;5033267;28;19929;-86
2022/03/02 11:31:48;;;;;;;;;;;9.30;99.90;;;;;;5033535;28;20262;-82
2022/03/02 11:34:14;;;;;;;;;;;9.50;99.90;;;;;;5015138;28;19925;-83
2022/03/02 11:36:41;;;;;;;;;;;9.60;99.90;;;;;;5026231;28;19925;-83
2022/03/02 11:39:07;;;;;;;;;;;9.80;99.90;;;;;;5033372;28;20290;-83
2022/03/02 11:41:34;;;;;;;;;;;10.10;99.90;;;;;;5034173;28;20384;-78
2022/03/02 11:44:03;;;;;;;;;;;10.20;99.90;;;;;;5024336;28;19938;-78
2022/03/02 11:46:29;;;;;;;;;;;10.40;99.90;;;;;;5020181;28;19929;-79
2022/03/02 11:48:55;;;;;;;;;;;10.60;99.90;;;;;;5018215;28;20377;-81
2022/03/02 11:51:23;;;;;;;;;;;10.80;99.90;;;;;;5025622;28;19929;-81
2022/03/02 11:53:54;;;;;;;;;;;11.00;99.90;;;;;;5020143;28;20361;-80
2022/03/02 11:56:21;;;;;;;;;;;11.00;99.90;;;;;;5019177;28;19938;-82
2022/03/02 11:58:53;;;;;;;;;;;11.10;99.90;;;;;;5019226;28;19929;-80
2022/03/02 12:01:19;;;;;;;;;;;11.10;99.90;;;;;;5036052;28;19979;-81
2022/03/02 12:03:58;;;;;;;;;;;11.20;99.90;;;;;;5019861;28;20369;-82
2022/03/02 12:06:24;;;;;;;;;;;11.30;99.90;;;;;;5035728;28;19972;-82
2022/03/02 12:08:50;;;;;;;;;;;11.50;99.90;;;;;;5035436;28;19924;-79
2022/03/02 12:11:21;;;;;;;;;;;11.60;99.90;;;;;;5019599;28;19924;-80
2022/03/02 12:14:07;;;;;;;;;;;11.70;99.90;;;;;;5017813;28;20366;-80
2022/03/02 12:16:40;;;;;;;;;;;11.80;99.90;;;;;;5036034;28;19932;-80
2022/03/02 12:19:17;;;;;;;;;;;11.90;99.90;;;;;;5041548;28;19924;-82
2022/03/02 12:21:43;;;;;;;;;;;12.10;99.90;;;;;;5031301;28;19990;-84
2022/03/02 12:24:09;;;;;;;;;;;12.10;99.90;;;;;;5036014;28;19924;-84
2022/03/02 12:26:38;;;;;;;;;;;12.20;99.90;;;;;;5019414;28;19924;-84
2022/03/02 12:29:08;;;;;;;;;;;12.30;99.90;;;;;;5035806;28;19976;-83
2022/03/02 12:31:34;;;;;;;;;;;12.30;99.90;;;;;;5035445;28;19931;-84
2022/03/02 12:34:00;;;;;;;;;;;12.40;99.90;;;;;;5053347;28;20297;-84
2022/03/02 12:36:26;;;;;;;;;;;12.50;99.90;;;;;;5035164;28;19974;-82
2022/03/02 12:38:52;;;;;;;;;;;12.60;99.90;;;;;;5035984;28;20383;-85
2022/03/02 12:41:18;;;;;;;;;;;12.60;99.90;;;;;;5018853;28;19975;-85
2022/03/02 12:43:44;;;;;;;;;;;12.70;99.90;;;;;;4999307;28;20293;-84
2022/03/02 12:46:09;;;;;;;;;;;12.70;99.90;;;;;;5032016;28;19932;-83
2022/03/02 12:48:36;;;;;;;;;;;12.70;99.90;;;;;;5016166;28;19925;-82
2022/03/02 12:51:02;;;;;;;;;;;12.80;99.90;;;;;;5031503;28;19948;-84
2022/03/02 12:53:30;;;;;;;;;;;12.90;99.90;;;;;;5014698;28;19925;-86
2022/03/02 12:55:55;;;;;;;;;;;12.90;99.90;;;;;;5031970;28;19925;-81
2022/03/02 12:58:23;;;;;;;;;;;12.80;99.90;;;;;;5014467;28;19925;-85
2022/03/02 13:00:48;;;;;;;;;;;12.80;99.90;;;;;;5031678;28;19932;-84
2022/03/02 13:03:20;;;;;;;;;;;12.80;99.90;;;;;;5013831;28;19925;-83
2022/03/02 13:05:48;;;;;;;;;;;12.70;99.90;;;;;;5011845;28;19926;-84
2022/03/02 13:08:30;;;;;;;;;;;12.50;99.90;;;;;;5014769;28;19929;-84
2022/03/02 13:10:56;;;;;;;;;;;12.50;99.90;;;;;;5030989;28;19925;-85
2022/03/02 13:13:38;;;;;;;;;;;12.40;99.90;;;;;;5031090;28;19964;-84
2022/03/02 13:16:20;;;;;;;;;;;12.50;99.90;;;;;;5026027;28;19976;-85
2022/03/02 13:18:46;;;;;;;;;;;12.50;99.90;;;;;;5044645;28;19929;-85
2022/03/02 13:21:16;;;;;;;;;;;12.30;99.90;;;;;;5029281;28;19933;-85
2022/03/02 13:24:01;;;;;;;;;;;12.20;99.90;;;;;;5048874;28;19991;-84
2022/03/02 13:26:26;;;;;;;;;;;12.10;99.90;;;;;;5031698;28;20011;-85
2022/03/02 13:29:18;;;;;;;;;;;12.00;99.90;;;;;;5017593;28;20141;-85
2022/03/02 13:31:51;;;;;;;;;;;11.80;99.90;;;;;;5028340;28;19945;-84
2022/03/02 13:34:19;;;;;;;;;;;11.70;99.90;;;;;;5023243;28;19933;-85
2022/03/02 13:36:49;;;;;;;;;;;11.60;99.90;;;;;;5035167;28;19925;-85
2022/03/02 13:39:16;;;;;;;;;;;11.50;99.90;;;;;;5034734;28;19925;-85
2022/03/02 13:41:48;;;;;;;;;;;11.30;99.90;;;;;;5017586;28;20365;-85
2022/03/02 13:44:20;;;;;;;;;;;11.10;99.90;;;;;;5033509;28;20365;-81
2022/03/02 13:47:05;;;;;;;;;;;11.10;99.90;;;;;;5032711;28;19925;-81
2022/03/02 13:49:53;;;;;;;;;;;11.30;99.90;;;;;;5032405;28;19964;-81
2022/03/02 13:52:27;;;;;;;;;;;11.50;99.90;;;;;;5048241;28;20439;-81
2022/03/02 13:54:54;;;;;;;;;;;11.80;99.90;;;;;;5032563;28;19929;-83
2022/03/02 13:57:21;;;;;;;;;;;12.20;99.90;;;;;;5027611;28;19926;-83
2022/03/02 13:59:47;;;;;;;;;;;12.50;99.90;;;;;;5033364;28;20367;-82
2022/03/02 14:02:13;;;;;;;;;;;12.80;99.90;;;;;;5017342;28;19928;-85
2022/03/02 14:04:43;;;;;;;;;;;13.00;99.90;;;;;;5033368;28;19932;-83
2022/03/02 14:07:08;;;;;;;;;;;13.20;99.90;;;;;;5017161;28;19994;-84
2022/03/02 14:09:35;;;;;;;;;;;13.30;99.90;;;;;;5017242;28;20026;-81
2022/03/02 14:12:04;;;;;;;;;;;13.60;99.90;;;;;;5033009;28;19988;-86
2022/03/02 14:14:32;;;;;;;;;;;13.90;99.90;;;;;;5017641;28;19968;-83
2022/03/02 14:16:59;;;;;;;;;;;14.20;99.90;;;;;;5017235;28;19983;-85
2022/03/02 14:19:26;;;;;;;;;;;14.70;99.90;;;;;;5016305;28;19925;-85
2022/03/02 14:21:56;;;;;;;;;;;14.90;99.90;;;;;;5025756;28;19931;-86
2022/03/02 14:24:23;;;;;;;;;;;15.10;99.90;;;;;;5016550;28;19925;-85
2022/03/02 14:26:51;;;;;;;;;;;15.30;99.90;;;;;;5016184;28;19925;-89
2022/03/02 14:29:17;;;;;;;;;;;15.50;99.90;;;;;;5033380;28;19929;-83
2022/03/02 14:31:56;;;;;;;;;;;15.80;99.90;;;;;;5028413;28;20073;-82